createdAt,value
2023-10-08T00:01:24.731Z,7.59
2023-10-08T00:03:52.703Z,7.22
2023-10-08T00:06:21.771Z,7.62
2023-10-08T00:08:49.909Z,7.18
2023-10-08T00:11:17.736Z,7.47
2023-10-08T00:13:45.455Z,7.59
2023-10-08T00:16:17.813Z,7.62
2023-10-08T00:18:52.874Z,7.56
2023-10-08T00:21:28.842Z,7.52
2023-10-08T00:23:59.432Z,7.12
2023-10-08T00:26:30.278Z,7.46
2023-10-08T00:29:17.001Z,7.43
2023-10-08T00:31:46.497Z,7.44
2023-10-08T00:34:15.033Z,7.39
2023-10-08T00:36:43.458Z,7.35
2023-10-08T00:39:15.143Z,7.34
2023-10-08T00:41:44.211Z,6.94
2023-10-08T00:44:19.429Z,7.26
2023-10-08T00:46:49.290Z,7.20
2023-10-08T00:49:37.423Z,7.12
2023-10-08T00:52:25.598Z,6.99
2023-10-08T00:55:05.644Z,6.73
2023-10-08T00:57:37.153Z,6.55
2023-10-08T01:00:07.673Z,6.91
2023-10-08T01:02:47.317Z,6.86
2023-10-08T01:05:19.152Z,6.84
2023-10-08T01:07:49.701Z,6.74
2023-10-08T01:10:21.058Z,6.77
2023-10-08T01:13:06.489Z,6.44
2023-10-08T01:15:37.038Z,6.42
2023-10-08T01:18:15.804Z,6.84
2023-10-08T01:20:46.356Z,6.36
2023-10-08T01:23:23.562Z,6.71
2023-10-08T01:25:58.684Z,6.65
2023-10-08T01:28:30.258Z,6.60
2023-10-08T01:31:01.458Z,6.58
2023-10-08T01:33:32.305Z,6.32
2023-10-08T01:36:05.125Z,6.31
2023-10-08T01:38:35.934Z,6.64
2023-10-08T01:41:11.211Z,6.67
2023-10-08T01:43:39.866Z,6.58
2023-10-08T01:46:12.464Z,6.95
2023-10-08T01:48:40.493Z,7.03
2023-10-08T01:51:12.392Z,6.86
2023-10-08T01:53:39.886Z,6.86
2023-10-08T01:56:07.301Z,6.82
2023-10-08T01:58:37.080Z,6.72
2023-10-08T02:01:06.532Z,6.68
2023-10-08T02:03:34.965Z,6.67
2023-10-08T02:06:06.952Z,6.62
2023-10-08T02:08:34.060Z,6.43
2023-10-08T02:11:03.506Z,6.45
2023-10-08T02:13:31.567Z,6.09
2023-10-08T02:15:59.190Z,6.69
2023-10-08T02:18:26.860Z,6.81
2023-10-08T02:20:54.255Z,6.99
2023-10-08T02:23:21.610Z,7.14
2023-10-08T02:25:49.172Z,7.14
2023-10-08T02:28:16.985Z,7.18
2023-10-08T02:30:44.593Z,7.22
2023-10-08T02:33:18.513Z,7.19
2023-10-08T02:35:47.404Z,7.22
2023-10-08T02:38:19.230Z,7.19
2023-10-08T02:40:48.595Z,7.06
2023-10-08T02:43:17.443Z,7.01
2023-10-08T02:45:56.704Z,6.91
2023-10-08T02:48:24.381Z,7.06
2023-10-08T02:50:54.356Z,6.89
2023-10-08T02:53:26.829Z,6.93
2023-10-08T02:55:54.793Z,6.93
2023-10-08T02:58:22.027Z,6.94
2023-10-08T03:00:50.210Z,6.95
2023-10-08T03:03:20.503Z,6.97
2023-10-08T03:05:53.323Z,6.91
2023-10-08T03:08:24.752Z,6.95
2023-10-08T03:10:56.576Z,6.96
2023-10-08T03:13:24.701Z,6.96
2023-10-08T03:16:04.035Z,7.05
2023-10-08T03:18:38.226Z,7.05
2023-10-08T03:21:22.558Z,6.74
2023-10-08T03:23:52.809Z,6.22
2023-10-08T03:26:32.581Z,6.72
2023-10-08T03:29:06.562Z,6.72
2023-10-08T03:31:59.771Z,6.71
2023-10-08T03:34:35.107Z,6.67
2023-10-08T03:37:08.469Z,6.54
2023-10-08T03:39:54.154Z,6.58
2023-10-08T03:42:25.129Z,6.56
2023-10-08T03:44:53.655Z,6.52
2023-10-08T03:47:23.550Z,6.47
2023-10-08T03:49:51.717Z,6.66
2023-10-08T03:52:30.955Z,6.77
2023-10-08T03:55:17.407Z,6.84
2023-10-08T03:57:45.347Z,6.73
2023-10-08T04:00:19.892Z,6.59
2023-10-08T04:03:08.930Z,6.61
2023-10-08T04:06:03.942Z,6.69
2023-10-08T04:08:59.371Z,6.65
2023-10-08T04:11:36.665Z,6.54
2023-10-08T04:14:04.304Z,6.43
2023-10-08T04:16:37.817Z,6.36
2023-10-08T04:19:05.548Z,6.23
2023-10-08T04:21:34.893Z,6.30
2023-10-08T04:24:04.883Z,6.23
2023-10-08T04:26:32.772Z,6.18
2023-10-08T04:29:07.549Z,6.13
2023-10-08T04:31:38.516Z,6.06
2023-10-08T04:34:23.095Z,6.06
2023-10-08T04:36:56.198Z,6.07
2023-10-08T04:39:27.286Z,6.03
2023-10-08T04:41:55.190Z,6.02
2023-10-08T04:46:53.645Z,5.96
2023-10-08T04:49:30.060Z,6.06
2023-10-08T04:51:59.771Z,6.07
2023-10-08T04:54:31.243Z,6.05
2023-10-08T04:57:03.758Z,5.96
2023-10-08T04:59:35.012Z,6.21
2023-10-08T05:02:22.537Z,6.21
2023-10-08T05:05:10.351Z,6.16
2023-10-08T05:07:46.652Z,6.10
2023-10-08T05:10:38.453Z,6.19
2023-10-08T05:13:05.503Z,6.32
2023-10-08T05:15:43.280Z,6.03
2023-10-08T05:18:30.958Z,6.26
2023-10-08T05:21:03.270Z,6.42
2023-10-08T05:23:30.827Z,6.45
2023-10-08T05:26:08.005Z,6.47
2023-10-08T05:28:47.512Z,6.40
2023-10-08T05:31:15.942Z,6.15
2023-10-08T05:34:02.502Z,6.27
2023-10-08T05:36:36.820Z,6.27
2023-10-08T05:39:26.650Z,6.27
2023-10-08T05:42:06.207Z,6.21
2023-10-08T05:44:46.943Z,6.31
2023-10-08T05:47:40.315Z,6.14
2023-10-08T05:50:16.794Z,6.38
2023-10-08T05:53:00.235Z,6.38
2023-10-08T05:55:34.828Z,6.26
2023-10-08T05:58:35.887Z,6.46
2023-10-08T06:01:08.840Z,6.47
2023-10-08T06:04:05.517Z,6.38
2023-10-08T06:06:38.661Z,6.49
2023-10-08T06:09:21.875Z,6.28
2023-10-08T06:12:10.887Z,6.11
2023-10-08T06:14:56.882Z,6.57
2023-10-08T06:17:58.748Z,6.58
2023-10-08T06:20:28.005Z,6.55
2023-10-08T06:23:02.062Z,6.46
2023-10-08T06:25:29.204Z,6.47
2023-10-08T06:27:56.793Z,6.49
2023-10-08T06:30:29.931Z,6.54
2023-10-08T06:32:57.732Z,6.53
2023-10-08T06:35:28.058Z,6.58
2023-10-08T06:38:00.847Z,6.62
2023-10-08T06:40:40.104Z,6.14
2023-10-08T06:43:18.104Z,6.50
2023-10-08T06:45:48.336Z,6.54
2023-10-08T06:48:21.782Z,6.58
2023-10-08T06:50:50.302Z,6.22
2023-10-08T06:53:22.925Z,6.91
2023-10-08T06:55:58.007Z,6.88
2023-10-08T06:58:25.648Z,7.20
2023-10-08T07:00:56.135Z,7.33
2023-10-08T07:03:23.566Z,7.43
2023-10-08T07:05:58.860Z,7.55
2023-10-08T07:08:28.019Z,7.62
2023-10-08T07:10:57.562Z,7.23
2023-10-08T07:13:25.557Z,7.92
2023-10-08T07:15:53.442Z,7.86
2023-10-08T07:18:26.182Z,7.86
2023-10-08T07:20:55.135Z,7.98
2023-10-08T07:23:26.297Z,8.02
2023-10-08T07:25:58.342Z,8.07
2023-10-08T07:28:26.740Z,8.17
2023-10-08T07:30:54.081Z,8.20
2023-10-08T07:33:21.288Z,8.31
2023-10-08T07:36:12.979Z,7.86
2023-10-08T07:38:43.264Z,8.31
2023-10-08T07:41:15.591Z,8.07
2023-10-08T07:43:47.554Z,8.26
2023-10-08T07:46:16.402Z,8.35
2023-10-08T07:48:43.957Z,8.43
2023-10-08T07:51:11.085Z,8.51
2023-10-08T07:53:43.021Z,8.54
2023-10-08T07:56:12.102Z,8.42
2023-10-08T07:58:39.289Z,8.59
2023-10-08T08:01:10.633Z,8.17
2023-10-08T08:03:38.080Z,8.80
2023-10-08T08:06:09.131Z,9.08
2023-10-08T08:08:38.147Z,9.00
2023-10-08T08:11:12.779Z,9.09
2023-10-08T08:13:44.084Z,9.02
2023-10-08T08:16:22.081Z,8.66
2023-10-08T08:18:53.045Z,8.86
2023-10-08T08:21:20.855Z,8.77
2023-10-08T08:23:49.285Z,8.49
2023-10-08T08:26:30.512Z,9.03
2023-10-08T08:29:00.936Z,8.72
2023-10-08T08:31:32.432Z,9.20
2023-10-08T08:34:18.800Z,9.18
2023-10-08T08:36:49.845Z,9.26
2023-10-08T08:39:37.596Z,9.17
2023-10-08T08:42:08.085Z,9.43
2023-10-08T08:44:47.233Z,9.51
2023-10-08T08:47:18.788Z,9.17
2023-10-08T08:49:47.558Z,9.79
2023-10-08T08:52:15.374Z,9.57
2023-10-08T08:54:45.670Z,9.57
2023-10-08T08:57:15.908Z,10.14
2023-10-08T08:59:54.325Z,10.48
2023-10-08T09:02:21.842Z,10.61
2023-10-08T09:04:50.448Z,10.50
2023-10-08T09:07:22.638Z,10.19
2023-10-08T09:09:50.834Z,10.05
2023-10-08T09:12:18.743Z,10.15
2023-10-08T09:14:47.386Z,10.09
2023-10-08T09:17:18.029Z,9.93
2023-10-08T09:19:46.641Z,10.05
2023-10-08T09:22:16.141Z,9.83
2023-10-08T09:24:43.825Z,10.07
2023-10-08T09:27:19.608Z,9.60
2023-10-08T09:29:47.390Z,9.97
2023-10-08T09:32:15.097Z,9.95
2023-10-08T09:34:44.170Z,9.31
2023-10-08T09:37:12.883Z,9.74
2023-10-08T09:39:42.307Z,9.67
2023-10-08T09:42:12.821Z,9.79
2023-10-08T09:44:40.826Z,9.81
2023-10-08T09:47:11.452Z,9.87
2023-10-08T09:50:08.553Z,10.21
2023-10-08T09:52:45.960Z,10.33
2023-10-08T09:55:13.313Z,10.24
2023-10-08T09:57:42.482Z,9.97
2023-10-08T10:00:19.637Z,9.58
2023-10-08T10:02:47.753Z,9.68
2023-10-08T10:05:25.266Z,9.65
2023-10-08T10:07:56.407Z,9.76
2023-10-08T10:10:35.648Z,9.86
2023-10-08T10:13:10.094Z,10.03
2023-10-08T10:15:39.134Z,9.99
2023-10-08T10:18:14.952Z,10.21
2023-10-08T10:20:55.149Z,10.34
2023-10-08T10:23:40.982Z,10.32
2023-10-08T10:26:27.490Z,10.37
2023-10-08T10:29:15.988Z,10.26
2023-10-08T10:31:54.043Z,10.22
2023-10-08T10:34:25.001Z,10.25
2023-10-08T10:36:57.417Z,10.22
2023-10-08T10:39:33.901Z,10.36
2023-10-08T10:42:03.627Z,10.45
2023-10-08T10:44:32.101Z,10.45
2023-10-08T10:47:20.671Z,10.56
2023-10-08T10:50:15.804Z,10.61
2023-10-08T10:52:52.879Z,10.95
2023-10-08T10:55:32.413Z,11.02
2023-10-08T10:58:12.324Z,11.16
2023-10-08T11:00:43.684Z,11.35
2023-10-08T11:03:17.307Z,11.47
2023-10-08T11:05:52.481Z,11.37
2023-10-08T11:08:20.779Z,11.55
2023-10-08T11:10:51.700Z,11.98
2023-10-08T11:13:20.752Z,11.69
2023-10-08T11:15:53.044Z,11.79
2023-10-08T11:18:22.917Z,11.53
2023-10-08T11:21:03.963Z,11.95
2023-10-08T11:23:42.590Z,12.09
2023-10-08T11:26:09.937Z,11.88
2023-10-08T11:28:44.268Z,11.76
2023-10-08T11:31:12.525Z,11.62
2023-10-08T11:33:49.487Z,11.53
2023-10-08T11:36:21.571Z,11.48
2023-10-08T11:38:49.052Z,11.47
2023-10-08T11:41:23.955Z,11.54
2023-10-08T11:43:57.793Z,11.64
2023-10-08T11:46:27.074Z,11.72
2023-10-08T11:48:58.917Z,11.79
2023-10-08T11:51:28.429Z,11.88
2023-10-08T11:53:57.508Z,11.69
2023-10-08T11:56:25.399Z,11.77
2023-10-08T11:58:53.473Z,11.62
2023-10-08T12:01:21.450Z,11.49
2023-10-08T12:03:51.068Z,11.30
2023-10-08T12:06:22.152Z,10.99
2023-10-08T12:08:54.552Z,11.42
2023-10-08T12:11:24.091Z,11.68
2023-10-08T12:13:51.122Z,11.81
2023-10-08T12:16:24.436Z,11.97
2023-10-08T12:18:55.037Z,12.02
2023-10-08T12:21:22.831Z,12.02
2023-10-08T12:23:52.413Z,11.59
2023-10-08T12:26:20.229Z,11.95
2023-10-08T12:28:49.613Z,11.73
2023-10-08T12:31:18.061Z,11.94
2023-10-08T12:33:45.328Z,11.97
2023-10-08T12:36:13.038Z,11.78
2023-10-08T12:38:44.608Z,12.06
2023-10-08T12:41:15.477Z,12.08
2023-10-08T12:43:46.664Z,12.29
2023-10-08T12:46:19.551Z,12.34
2023-10-08T12:48:49.510Z,12.08
2023-10-08T12:51:17.060Z,12.13
2023-10-08T12:53:51.842Z,12.07
2023-10-08T12:56:22.882Z,12.08
2023-10-08T12:58:50.198Z,12.04
2023-10-08T13:01:21.110Z,12.12
2023-10-08T13:03:51.117Z,12.01
2023-10-08T13:06:23.337Z,12.04
2023-10-08T13:08:53.742Z,12.07
2023-10-08T13:11:23.462Z,11.69
2023-10-08T13:13:51.555Z,12.28
2023-10-08T13:16:24.241Z,12.41
2023-10-08T13:18:53.132Z,12.51
2023-10-08T13:21:20.530Z,12.67
2023-10-08T13:23:47.817Z,12.63
2023-10-08T13:26:23.711Z,12.69
2023-10-08T13:28:51.090Z,12.63
2023-10-08T13:31:20.278Z,12.34
2023-10-08T13:33:50.122Z,12.12
2023-10-08T13:36:19.538Z,11.72
2023-10-08T13:38:47.637Z,11.97
2023-10-08T13:41:19.185Z,11.59
2023-10-08T13:43:52.588Z,11.73
2023-10-08T13:46:23.803Z,12.03
2023-10-08T13:48:51.162Z,11.97
2023-10-08T13:51:26.782Z,12.00
2023-10-08T13:54:00.445Z,11.83
2023-10-08T13:56:31.060Z,11.87
2023-10-08T13:59:12.806Z,11.89
2023-10-08T14:01:44.437Z,11.96
2023-10-08T14:04:12.488Z,11.94
2023-10-08T14:06:49.511Z,11.71
2023-10-08T14:09:22.542Z,11.67
2023-10-08T14:11:54.128Z,11.68
2023-10-08T14:14:25.439Z,11.53
2023-10-08T14:16:54.973Z,11.54
2023-10-08T14:19:30.019Z,11.65
2023-10-08T14:22:04.095Z,11.51
2023-10-08T14:24:36.560Z,11.52
2023-10-08T14:27:12.989Z,11.52
2023-10-08T14:29:51.216Z,11.56
2023-10-08T14:32:18.910Z,11.42
2023-10-08T14:34:55.195Z,11.81
2023-10-08T14:37:42.106Z,11.75
2023-10-08T14:40:28.285Z,11.59
2023-10-08T14:43:03.516Z,12.02
2023-10-08T14:45:36.091Z,12.05
2023-10-08T14:48:03.586Z,12.02
2023-10-08T14:50:34.121Z,11.83
2023-10-08T14:53:02.772Z,11.76
2023-10-08T14:55:31.210Z,11.59
2023-10-08T14:57:58.516Z,11.72
2023-10-08T15:00:26.022Z,11.81
2023-10-08T15:02:56.770Z,11.68
2023-10-08T15:05:24.337Z,11.36
2023-10-08T15:07:55.169Z,11.68
2023-10-08T15:10:24.900Z,11.61
2023-10-08T15:12:53.377Z,11.22
2023-10-08T15:15:20.762Z,11.43
2023-10-08T15:17:50.568Z,11.34
2023-10-08T15:20:20.908Z,10.86
2023-10-08T15:22:50.461Z,11.13
2023-10-08T15:25:19.190Z,11.18
2023-10-08T15:27:48.631Z,11.27
2023-10-08T15:30:21.308Z,11.18
2023-10-08T15:32:50.156Z,11.15
2023-10-08T15:35:21.233Z,10.60
2023-10-08T15:37:48.979Z,10.98
2023-10-08T15:40:20.892Z,10.93
2023-10-08T15:42:53.276Z,10.93
2023-10-08T15:45:21.591Z,10.86
2023-10-08T15:47:53.032Z,10.34
2023-10-08T15:50:26.590Z,10.75
2023-10-08T15:52:55.643Z,10.68
2023-10-08T15:55:24.572Z,10.62
2023-10-08T15:57:54.938Z,10.12
2023-10-08T16:00:22.165Z,10.46
2023-10-08T16:02:49.993Z,10.33
2023-10-08T16:05:18.085Z,10.38
2023-10-08T16:07:46.435Z,10.32
2023-10-08T16:10:13.570Z,10.45
2023-10-08T16:12:40.918Z,10.50
2023-10-08T16:15:08.704Z,10.37
2023-10-08T16:17:39.143Z,10.32
2023-10-08T16:20:14.532Z,10.23
2023-10-08T16:22:43.319Z,10.32
2023-10-08T16:25:15.945Z,10.21
2023-10-08T16:27:49.015Z,10.16
2023-10-08T16:30:17.088Z,10.12
2023-10-08T16:32:44.514Z,9.69
2023-10-08T16:35:12.731Z,9.93
2023-10-08T16:37:41.171Z,9.79
2023-10-08T16:40:09.072Z,9.87
2023-10-08T16:42:36.339Z,9.77
2023-10-08T16:45:06.153Z,9.62
2023-10-08T16:47:33.693Z,9.60
2023-10-08T16:50:01.435Z,9.58
2023-10-08T16:52:28.716Z,9.27
2023-10-08T16:54:55.822Z,9.54
2023-10-08T16:57:23.800Z,9.48
2023-10-08T16:59:53.067Z,9.40
2023-10-08T17:02:20.214Z,9.29
2023-10-08T17:04:47.332Z,9.19
2023-10-08T17:07:16.656Z,9.16
2023-10-08T17:09:43.744Z,9.02
2023-10-08T17:12:10.981Z,9.01
2023-10-08T17:14:39.819Z,8.93
2023-10-08T17:17:06.872Z,8.90
2023-10-08T17:19:34.240Z,8.51
2023-10-08T17:22:01.246Z,8.22
2023-10-08T17:24:29.445Z,8.48
2023-10-08T17:27:11.756Z,8.38
2023-10-08T17:29:42.485Z,8.35
2023-10-08T17:32:09.606Z,8.26
2023-10-08T17:34:37.284Z,8.24
2023-10-08T17:37:04.578Z,8.16
2023-10-08T17:39:31.578Z,8.13
2023-10-08T17:41:58.733Z,8.09
2023-10-08T17:44:28.122Z,8.06
2023-10-08T17:46:55.668Z,8.00
2023-10-08T17:49:23.035Z,7.87
2023-10-08T17:51:50.073Z,7.89
2023-10-08T17:54:17.205Z,7.83
2023-10-08T17:56:44.358Z,7.68
2023-10-08T17:59:14.767Z,7.77
2023-10-08T18:01:43.221Z,7.69
2023-10-08T18:04:14.631Z,7.77
2023-10-08T18:06:45.525Z,7.69
2023-10-08T18:09:14.048Z,7.65
2023-10-08T18:11:44.895Z,7.58
2023-10-08T18:14:14.269Z,7.43
2023-10-08T18:16:42.430Z,7.09
2023-10-08T18:19:11.881Z,7.22
2023-10-08T18:21:40.281Z,7.01
2023-10-08T18:24:09.469Z,7.33
2023-10-08T18:26:48.857Z,7.22
2023-10-08T18:29:17.284Z,6.94
2023-10-08T18:31:45.800Z,6.73
2023-10-08T18:34:16.756Z,7.04
2023-10-08T18:36:43.884Z,6.95
2023-10-08T18:39:17.789Z,6.87
2023-10-08T18:41:47.380Z,6.86
2023-10-08T18:44:17.169Z,6.52
2023-10-08T18:46:48.491Z,6.75
2023-10-08T18:49:16.547Z,6.67
2023-10-08T18:51:44.642Z,6.49
2023-10-08T18:54:13.499Z,6.57
2023-10-08T18:56:42.607Z,6.58
2023-10-08T18:59:10.353Z,6.48
2023-10-08T19:01:39.069Z,6.47
2023-10-08T19:04:07.644Z,6.53
2023-10-08T19:06:35.564Z,6.49
2023-10-08T19:09:04.798Z,6.38
2023-10-08T19:11:36.296Z,6.20
2023-10-08T19:14:04.715Z,5.94
2023-10-08T19:16:32.337Z,6.32
2023-10-08T19:19:00.083Z,6.22
2023-10-08T19:21:28.317Z,6.12
2023-10-08T19:23:56.630Z,6.11
2023-10-08T19:26:29.775Z,6.09
2023-10-08T19:28:57.349Z,6.00
2023-10-08T19:31:25.007Z,6.07
2023-10-08T19:33:53.512Z,6.01
2023-10-08T19:36:21.125Z,5.83
2023-10-08T19:38:50.699Z,5.95
2023-10-08T19:41:22.285Z,5.96
2023-10-08T19:43:52.882Z,5.86
2023-10-08T19:46:24.202Z,5.50
2023-10-08T19:48:53.011Z,5.75
2023-10-08T19:51:20.352Z,5.76
2023-10-08T19:53:52.215Z,5.30
2023-10-08T19:56:20.479Z,5.70
2023-10-08T19:58:48.083Z,5.71
2023-10-08T20:01:17.319Z,5.66
2023-10-08T20:03:45.482Z,5.68
2023-10-08T20:06:13.682Z,5.76
2023-10-08T20:08:40.843Z,5.62
2023-10-08T20:11:08.494Z,5.57
2023-10-08T20:13:38.524Z,5.56
2023-10-08T20:16:06.980Z,5.22
2023-10-08T20:18:34.635Z,5.56
2023-10-08T20:21:05.890Z,5.49
2023-10-08T20:23:36.736Z,5.44
2023-10-08T20:26:15.794Z,5.03
2023-10-08T20:28:43.222Z,5.38
2023-10-08T20:31:15.359Z,5.28
2023-10-08T20:33:44.761Z,5.26
2023-10-08T20:36:12.151Z,5.18
2023-10-08T20:38:40.245Z,5.13
2023-10-08T20:41:15.523Z,5.11
2023-10-08T20:43:42.888Z,5.08
2023-10-08T20:46:16.773Z,5.07
2023-10-08T20:48:46.187Z,5.02
2023-10-08T20:51:18.261Z,4.99
2023-10-08T20:53:46.363Z,4.95
2023-10-08T20:56:14.183Z,4.87
2023-10-08T20:58:42.923Z,4.82
2023-10-08T21:01:11.696Z,4.79
2023-10-08T21:03:39.168Z,4.70
2023-10-08T21:06:07.444Z,4.75
2023-10-08T21:08:34.591Z,4.71
2023-10-08T21:11:04.249Z,4.66
2023-10-08T21:13:31.806Z,4.60
2023-10-08T21:16:02.938Z,4.59
2023-10-08T21:18:31.927Z,4.57
2023-10-08T21:21:04.348Z,4.54
2023-10-08T21:23:31.977Z,4.50
2023-10-08T21:25:59.012Z,4.44
2023-10-08T21:28:26.182Z,4.43
2023-10-08T21:30:53.629Z,4.40
2023-10-08T21:33:20.928Z,4.40
2023-10-08T21:35:48.139Z,4.38
2023-10-08T21:38:15.342Z,4.42
2023-10-08T21:40:42.518Z,4.43
2023-10-08T21:43:10.143Z,4.40
2023-10-08T21:45:38.305Z,4.45
2023-10-08T21:48:07.100Z,4.46
2023-10-08T21:50:34.488Z,4.53
2023-10-08T21:53:02.220Z,4.49
2023-10-08T21:55:29.252Z,4.59
2023-10-08T21:57:56.310Z,4.49
2023-10-08T22:00:25.993Z,4.56
2023-10-08T22:02:59.475Z,4.53
2023-10-08T22:05:32.843Z,4.59
2023-10-08T22:08:04.605Z,4.52
2023-10-08T22:10:34.515Z,4.58
2023-10-08T22:13:07.909Z,4.71
2023-10-08T22:15:46.260Z,4.68
2023-10-08T22:18:26.105Z,4.68
2023-10-08T22:20:54.282Z,4.72
2023-10-08T22:23:22.319Z,4.62
2023-10-08T22:25:52.403Z,4.51
2023-10-08T22:28:21.050Z,4.50
2023-10-08T22:30:55.834Z,4.48
2023-10-08T22:33:34.862Z,4.48
2023-10-08T22:36:15.987Z,4.43
2023-10-08T22:38:43.886Z,4.43
2023-10-08T22:41:11.351Z,4.32
2023-10-08T22:43:40.992Z,4.36
2023-10-08T22:46:12.125Z,4.33
2023-10-08T22:48:50.881Z,4.35
2023-10-08T22:51:28.484Z,4.43
2023-10-08T22:53:57.352Z,4.31
2023-10-08T22:56:25.469Z,4.18
2023-10-08T22:58:55.991Z,4.19
2023-10-08T23:01:25.427Z,4.19
2023-10-08T23:03:53.682Z,4.14
2023-10-08T23:06:24.901Z,3.67
2023-10-08T23:08:54.587Z,4.15
2023-10-08T23:11:21.793Z,4.09
2023-10-08T23:13:51.425Z,4.07
2023-10-08T23:16:22.445Z,4.07
2023-10-08T23:18:56.135Z,4.04
2023-10-08T23:21:26.696Z,4.02
2023-10-08T23:23:54.057Z,3.95
2023-10-08T23:26:22.621Z,4.05
2023-10-08T23:28:50.416Z,3.81
2023-10-08T23:31:18.846Z,4.01
2023-10-08T23:33:50.083Z,4.03
2023-10-08T23:36:18.327Z,4.03
2023-10-08T23:38:54.037Z,3.95
2023-10-08T23:41:32.816Z,3.59
2023-10-08T23:44:03.929Z,3.65
2023-10-08T23:46:32.178Z,4.06
2023-10-08T23:49:06.354Z,4.06
2023-10-08T23:51:42.474Z,4.01
2023-10-08T23:54:26.835Z,4.01
2023-10-08T23:57:01.248Z,4.00
2023-10-08T23:59:42.632Z,3.97
